sensor_id;sensor_type;location;lat;lon;timestamp;pressure;altitude;pressure_sealevel;temperature
37452;BMP280;23314;51.114;6.900;2022-11-06T00:01:54;101381.34;;;8.76
37452;BMP280;23314;51.114;6.900;2022-11-06T00:04:19;101382.81;;;8.73
37452;BMP280;23314;51.114;6.900;2022-11-06T00:06:45;101378.22;;;8.70
37452;BMP280;23314;51.114;6.900;2022-11-06T00:09:16;101380.50;;;8.68
37452;BMP280;23314;51.114;6.900;2022-11-06T00:11:42;101375.19;;;8.64
37452;BMP280;23314;51.114;6.900;2022-11-06T00:14:08;101385.06;;;8.64
37452;BMP280;23314;51.114;6.900;2022-11-06T00:16:36;101379.34;;;8.62
37452;BMP280;23314;51.114;6.900;2022-11-06T00:19:01;101378.16;;;8.59
37452;BMP280;23314;51.114;6.900;2022-11-06T00:21:28;101386.53;;;8.58
37452;BMP280;23314;51.114;6.900;2022-11-06T00:23:57;101379.69;;;8.57
37452;BMP280;23314;51.114;6.900;2022-11-06T00:26:25;101380.84;;;8.56
37452;BMP280;23314;51.114;6.900;2022-11-06T00:28:51;101379.69;;;8.53
37452;BMP280;23314;51.114;6.900;2022-11-06T00:31:25;101383.06;;;8.50
37452;BMP280;23314;51.114;6.900;2022-11-06T00:33:52;101385.69;;;8.46
37452;BMP280;23314;51.114;6.900;2022-11-06T00:36:20;101380.75;;;8.45
37452;BMP280;23314;51.114;6.900;2022-11-06T00:38:46;101375.78;;;8.43
37452;BMP280;23314;51.114;6.900;2022-11-06T00:41:15;101383.00;;;8.43
37452;BMP280;23314;51.114;6.900;2022-11-06T00:43:41;101386.03;;;8.41
37452;BMP280;23314;51.114;6.900;2022-11-06T00:46:09;101377.28;;;8.41
37452;BMP280;23314;51.114;6.900;2022-11-06T00:48:35;101379.94;;;8.41
37452;BMP280;23314;51.114;6.900;2022-11-06T00:51:05;101368.56;;;8.40
37452;BMP280;23314;51.114;6.900;2022-11-06T00:53:31;101374.59;;;8.37
37452;BMP280;23314;51.114;6.900;2022-11-06T00:58:35;101378.38;;;8.36
37452;BMP280;23314;51.114;6.900;2022-11-06T01:01:06;101379.56;;;8.35
37452;BMP280;23314;51.114;6.900;2022-11-06T01:03:32;101380.69;;;8.34
37452;BMP280;23314;51.114;6.900;2022-11-06T01:08:30;101371.53;;;8.31
37452;BMP280;23314;51.114;6.900;2022-11-06T01:10:55;101375.31;;;8.30
37452;BMP280;23314;51.114;6.900;2022-11-06T01:13:21;101367.34;;;8.30
37452;BMP280;23314;51.114;6.900;2022-11-06T01:15:46;101360.16;;;8.34
37452;BMP280;23314;51.114;6.900;2022-11-06T01:18:12;101354.47;;;8.36
37452;BMP280;23314;51.114;6.900;2022-11-06T01:20:37;101354.47;;;8.36
37452;BMP280;23314;51.114;6.900;2022-11-06T01:23:02;101347.66;;;8.35
37452;BMP280;23314;51.114;6.900;2022-11-06T01:25:28;101348.78;;;8.34
37452;BMP280;23314;51.114;6.900;2022-11-06T01:27:53;101360.16;;;8.34
37452;BMP280;23314;51.114;6.900;2022-11-06T01:30:18;101351.03;;;8.32
37452;BMP280;23314;51.114;6.900;2022-11-06T01:32:44;101353.34;;;8.37
37452;BMP280;23314;51.114;6.900;2022-11-06T01:35:09;101336.25;;;8.38
37452;BMP280;23314;51.114;6.900;2022-11-06T01:37:38;101339.31;;;8.40
37452;BMP280;23314;51.114;6.900;2022-11-06T01:40:04;101336.25;;;8.38
37452;BMP280;23314;51.114;6.900;2022-11-06T01:42:29;101334.34;;;8.39
37452;BMP280;23314;51.114;6.900;2022-11-06T01:45:35;101338.91;;;8.38
37452;BMP280;23314;51.114;6.900;2022-11-06T01:48:05;101329.78;;;8.35
37452;BMP280;23314;51.114;6.900;2022-11-06T01:50:31;101335.84;;;8.36
37452;BMP280;23314;51.114;6.900;2022-11-06T01:53:05;101339.66;;;8.35
37452;BMP280;23314;51.114;6.900;2022-11-06T01:55:39;101321.06;;;8.35
37452;BMP280;23314;51.114;6.900;2022-11-06T01:58:12;101317.63;;;8.34
37452;BMP280;23314;51.114;6.900;2022-11-06T02:00:42;101317.59;;;8.31
37452;BMP280;23314;51.114;6.900;2022-11-06T02:03:11;101310.78;;;8.33
37452;BMP280;23314;51.114;6.900;2022-11-06T02:05:41;101319.88;;;8.32
37452;BMP280;23314;51.114;6.900;2022-11-06T02:08:17;101313.81;;;8.32
37452;BMP280;23314;51.114;6.900;2022-11-06T02:11:00;101314.94;;;8.31
37452;BMP280;23314;51.114;6.900;2022-11-06T02:20:45;101308.81;;;8.23
37452;BMP280;23314;51.114;6.900;2022-11-06T02:30:07;101312.94;;;8.17
37452;BMP280;23314;51.114;6.900;2022-11-06T02:32:47;101312.94;;;8.17
37452;BMP280;23314;51.114;6.900;2022-11-06T02:35:34;101308.75;;;8.16
37452;BMP280;23314;51.114;6.900;2022-11-06T02:38:20;101318.25;;;8.17
37452;BMP280;23314;51.114;6.900;2022-11-06T02:40:50;101314.47;;;8.18
37452;BMP280;23314;51.114;6.900;2022-11-06T02:43:18;101315.63;;;8.20
37452;BMP280;23314;51.114;6.900;2022-11-06T02:45:49;101303.91;;;8.25
37452;BMP280;23314;51.114;6.900;2022-11-06T02:48:18;101297.84;;;8.28
37452;BMP280;23314;51.114;6.900;2022-11-06T02:50:46;101299.00;;;8.34
37452;BMP280;23314;51.114;6.900;2022-11-06T02:53:13;101293.00;;;8.41
37452;BMP280;23314;51.114;6.900;2022-11-06T02:55:43;101286.56;;;8.46
37452;BMP280;23314;51.114;6.900;2022-11-06T02:58:13;101286.56;;;8.49
37452;BMP280;23314;51.114;6.900;2022-11-06T03:00:45;101286.97;;;8.51
37452;BMP280;23314;51.114;6.900;2022-11-06T03:03:20;101287.34;;;8.50
37452;BMP280;23314;51.114;6.900;2022-11-06T03:11:05;101286.53;;;8.42
37452;BMP280;23314;51.114;6.900;2022-11-06T03:13:50;101275.47;;;8.36
37452;BMP280;23314;51.114;6.900;2022-11-06T03:21:57;101270.50;;;8.24
37452;BMP280;23314;51.114;6.900;2022-11-06T03:24:30;101263.25;;;8.21
37452;BMP280;23314;51.114;6.900;2022-11-06T03:26:58;101259.06;;;8.20
37452;BMP280;23314;51.114;6.900;2022-11-06T03:29:38;101256.00;;;8.18
37452;BMP280;23314;51.114;6.900;2022-11-06T03:32:12;101264.69;;;8.15
37452;BMP280;23314;51.114;6.900;2022-11-06T03:37:28;101266.97;;;8.09
37452;BMP280;23314;51.114;6.900;2022-11-06T03:39:58;101268.84;;;8.09
37452;BMP280;23314;51.114;6.900;2022-11-06T03:42:27;101273.75;;;8.07
37452;BMP280;23314;51.114;6.900;2022-11-06T03:44:59;101271.88;;;8.07
37452;BMP280;23314;51.114;6.900;2022-11-06T03:47:36;101277.19;;;8.07
37452;BMP280;23314;51.114;6.900;2022-11-06T03:50:12;101279.06;;;8.07
37452;BMP280;23314;51.114;6.900;2022-11-06T03:52:42;101278.72;;;8.08
37452;BMP280;23314;51.114;6.900;2022-11-06T03:55:20;101285.91;;;8.08
37452;BMP280;23314;51.114;6.900;2022-11-06T03:57:50;101284.03;;;8.08
37452;BMP280;23314;51.114;6.900;2022-11-06T04:00:18;101282.91;;;8.09
37452;BMP280;23314;51.114;6.900;2022-11-06T04:02:56;101270.78;;;8.12
37452;BMP280;23314;51.114;6.900;2022-11-06T04:05:33;101286.38;;;8.13
37452;BMP280;23314;51.114;6.900;2022-11-06T04:08:00;101276.88;;;8.12
37452;BMP280;23314;51.114;6.900;2022-11-06T04:10:47;101266.22;;;8.12
37452;BMP280;23314;51.114;6.900;2022-11-06T04:13:34;101268.91;;;8.12
37452;BMP280;23314;51.114;6.900;2022-11-06T04:16:19;101271.56;;;8.12
37452;BMP280;23314;51.114;6.900;2022-11-06T04:18:45;101276.84;;;8.16
37452;BMP280;23314;51.114;6.900;2022-11-06T04:21:25;101267.75;;;8.13
37452;BMP280;23314;51.114;6.900;2022-11-06T04:32:28;101264.31;;;8.09
37452;BMP280;23314;51.114;6.900;2022-11-06T04:35:04;101262.06;;;8.11
37452;BMP280;23314;51.114;6.900;2022-11-06T04:40:16;101248.72;;;8.08
37452;BMP280;23314;51.114;6.900;2022-11-06T04:43:33;101255.16;;;8.07
37452;BMP280;23314;51.114;6.900;2022-11-06T04:45:41;101251.34;;;8.04
37452;BMP280;23314;51.114;6.900;2022-11-06T04:48:07;101245.28;;;8.03
37452;BMP280;23314;51.114;6.900;2022-11-06T04:50:39;101238.84;;;8.04
37452;BMP280;23314;51.114;6.900;2022-11-06T04:53:06;101235.03;;;8.02
37452;BMP280;23314;51.114;6.900;2022-11-06T04:55:38;101221.78;;;8.06
37452;BMP280;23314;51.114;6.900;2022-11-06T04:58:09;101220.25;;;8.04
37452;BMP280;23314;51.114;6.900;2022-11-06T05:00:36;101217.59;;;8.04
37452;BMP280;23314;51.114;6.900;2022-11-06T05:03:02;101211.50;;;8.04
37452;BMP280;23314;51.114;6.900;2022-11-06T05:05:27;101209.59;;;8.04
37452;BMP280;23314;51.114;6.900;2022-11-06T05:07:53;101195.94;;;8.06
37452;BMP280;23314;51.114;6.900;2022-11-06T05:10:18;101196.34;;;8.08
37452;BMP280;23314;51.114;6.900;2022-11-06T05:12:46;101192.56;;;8.09
37452;BMP280;23314;51.114;6.900;2022-11-06T05:15:11;101195.56;;;8.08
37452;BMP280;23314;51.114;6.900;2022-11-06T05:17:37;101189.50;;;8.07
37452;BMP280;23314;51.114;6.900;2022-11-06T05:20:03;101185.69;;;8.04
37452;BMP280;23314;51.114;6.900;2022-11-06T05:22:28;101179.25;;;8.06
37452;BMP280;23314;51.114;6.900;2022-11-06T05:25:12;101179.59;;;8.04
37452;BMP280;23314;51.114;6.900;2022-11-06T05:27:38;101166.31;;;8.04
37452;BMP280;23314;51.114;6.900;2022-11-06T05:30:03;101172.78;;;8.07
37452;BMP280;23314;51.114;6.900;2022-11-06T05:32:29;101171.31;;;8.09
37452;BMP280;23314;51.114;6.900;2022-11-06T05:34:54;101167.13;;;8.08
37452;BMP280;23314;51.114;6.900;2022-11-06T05:37:20;101156.50;;;8.08
37452;BMP280;23314;51.114;6.900;2022-11-06T05:39:45;101147.00;;;8.07
37452;BMP280;23314;51.114;6.900;2022-11-06T05:42:11;101149.25;;;8.09
37452;BMP280;23314;51.114;6.900;2022-11-06T05:44:37;101159.53;;;8.10
37452;BMP280;23314;51.114;6.900;2022-11-06T05:47:02;101172.81;;;8.10
37452;BMP280;23314;51.114;6.900;2022-11-06T05:49:28;101159.53;;;8.10
37452;BMP280;23314;51.114;6.900;2022-11-06T05:51:53;101155.75;;;8.11
37452;BMP280;23314;51.114;6.900;2022-11-06T05:54:18;101152.72;;;8.13
37452;BMP280;23314;51.114;6.900;2022-11-06T05:56:44;101148.19;;;8.13
37452;BMP280;23314;51.114;6.900;2022-11-06T05:59:10;101144.75;;;8.13
37452;BMP280;23314;51.114;6.900;2022-11-06T06:01:35;101131.47;;;8.13
37452;BMP280;23314;51.114;6.900;2022-11-06T06:04:00;101132.59;;;8.15
37452;BMP280;23314;51.114;6.900;2022-11-06T06:06:26;101138.66;;;8.16
37452;BMP280;23314;51.114;6.900;2022-11-06T06:08:51;101140.97;;;8.17
37452;BMP280;23314;51.114;6.900;2022-11-06T06:11:17;101136.03;;;8.19
37452;BMP280;23314;51.114;6.900;2022-11-06T06:13:42;101137.53;;;8.17
37452;BMP280;23314;51.114;6.900;2022-11-06T06:16:07;101138.31;;;8.17
37452;BMP280;23314;51.114;6.900;2022-11-06T06:18:33;101128.81;;;8.16
37452;BMP280;23314;51.114;6.900;2022-11-06T06:20:58;101131.09;;;8.18
37452;BMP280;23314;51.114;6.900;2022-11-06T06:23:23;101118.56;;;8.18
37452;BMP280;23314;51.114;6.900;2022-11-06T06:25:49;101114.03;;;8.19
37452;BMP280;23314;51.114;6.900;2022-11-06T06:28:14;101107.97;;;8.22
37452;BMP280;23314;51.114;6.900;2022-11-06T06:30:39;101109.50;;;8.23
37452;BMP280;23314;51.114;6.900;2022-11-06T06:33:05;101103.03;;;8.24
37452;BMP280;23314;51.114;6.900;2022-11-06T06:35:31;101100.75;;;8.26
37452;BMP280;23314;51.114;6.900;2022-11-06T06:37:57;101105.34;;;8.29
37452;BMP280;23314;51.114;6.900;2022-11-06T06:40:22;101107.22;;;8.32
37452;BMP280;23314;51.114;6.900;2022-11-06T06:42:48;101112.19;;;8.34
37452;BMP280;23314;51.114;6.900;2022-11-06T06:45:13;101119.78;;;8.35
37452;BMP280;23314;51.114;6.900;2022-11-06T06:47:39;101119.41;;;8.37
37452;BMP280;23314;51.114;6.900;2022-11-06T06:50:05;101130.81;;;8.41
37452;BMP280;23314;51.114;6.900;2022-11-06T06:52:30;101124.75;;;8.44
37452;BMP280;23314;51.114;6.900;2022-11-06T06:54:55;101128.16;;;8.48
37452;BMP280;23314;51.114;6.900;2022-11-06T06:57:21;101151.75;;;8.54
37452;BMP280;23314;51.114;6.900;2022-11-06T06:59:46;101138.84;;;8.56
37452;BMP280;23314;51.114;6.900;2022-11-06T07:02:11;101133.50;;;8.59
37452;BMP280;23314;51.114;6.900;2022-11-06T07:04:38;101133.16;;;8.64
37452;BMP280;23314;51.114;6.900;2022-11-06T07:07:04;101133.53;;;8.70
37452;BMP280;23314;51.114;6.900;2022-11-06T07:09:30;101137.38;;;8.76
37452;BMP280;23314;51.114;6.900;2022-11-06T07:11:56;101131.66;;;8.81
37452;BMP280;23314;51.114;6.900;2022-11-06T07:14:21;101142.69;;;8.87
37452;BMP280;23314;51.114;6.900;2022-11-06T07:16:47;101139.28;;;8.94
37452;BMP280;23314;51.114;6.900;2022-11-06T07:19:12;101138.16;;;8.98
37452;BMP280;23314;51.114;6.900;2022-11-06T07:21:37;101144.25;;;9.06
37452;BMP280;23314;51.114;6.900;2022-11-06T07:24:03;101132.09;;;9.12
37452;BMP280;23314;51.114;6.900;2022-11-06T07:26:29;101141.19;;;9.19
37452;BMP280;23314;51.114;6.900;2022-11-06T07:28:54;101138.53;;;9.26
37452;BMP280;23314;51.114;6.900;2022-11-06T07:31:19;101134.34;;;9.32
37452;BMP280;23314;51.114;6.900;2022-11-06T07:33:45;101130.91;;;9.39
37452;BMP280;23314;51.114;6.900;2022-11-06T07:36:11;101144.59;;;9.48
37452;BMP280;23314;51.114;6.900;2022-11-06T07:38:39;101144.22;;;9.57
37452;BMP280;23314;51.114;6.900;2022-11-06T07:41:10;101147.63;;;9.65
37452;BMP280;23314;51.114;6.900;2022-11-06T07:43:36;101141.16;;;9.73
37452;BMP280;23314;51.114;6.900;2022-11-06T07:46:04;101145.28;;;9.85
37452;BMP280;23314;51.114;6.900;2022-11-06T07:48:30;101143.72;;;9.98
37452;BMP280;23314;51.114;6.900;2022-11-06T07:50:56;101149.38;;;10.11
37452;BMP280;23314;51.114;6.900;2022-11-06T07:53:22;101146.66;;;10.25
37452;BMP280;23314;51.114;6.900;2022-11-06T07:55:51;101146.59;;;10.40
37452;BMP280;23314;51.114;6.900;2022-11-06T07:58:18;101143.84;;;10.54
37452;BMP280;23314;51.114;6.900;2022-11-06T08:00:52;101136.53;;;10.66
37452;BMP280;23314;51.114;6.900;2022-11-06T08:03:18;101139.88;;;10.81
37452;BMP280;23314;51.114;6.900;2022-11-06T08:05:44;101118.81;;;10.94
37452;BMP280;23314;51.114;6.900;2022-11-06T08:08:10;101114.13;;;11.05
37452;BMP280;23314;51.114;6.900;2022-11-06T08:10:35;101118.28;;;11.09
37452;BMP280;23314;51.114;6.900;2022-11-06T08:13:05;101122.88;;;11.09
37452;BMP280;23314;51.114;6.900;2022-11-06T08:15:32;101119.81;;;11.07
37452;BMP280;23314;51.114;6.900;2022-11-06T08:17:58;101119.44;;;11.05
37452;BMP280;23314;51.114;6.900;2022-11-06T08:20:23;101122.13;;;11.05
37452;BMP280;23314;51.114;6.900;2022-11-06T08:22:51;101110.66;;;11.08
37452;BMP280;23314;51.114;6.900;2022-11-06T08:25:16;101116.72;;;11.12
37452;BMP280;23314;51.114;6.900;2022-11-06T08:27:48;101115.94;;;11.15
37452;BMP280;23314;51.114;6.900;2022-11-06T08:30:13;101110.94;;;11.21
37452;BMP280;23314;51.114;6.900;2022-11-06T08:32:39;101104.38;;;11.29
37452;BMP280;23314;51.114;6.900;2022-11-06T08:35:05;101110.34;;;11.40
37452;BMP280;23314;51.114;6.900;2022-11-06T08:37:30;101101.44;;;11.54
37452;BMP280;23314;51.114;6.900;2022-11-06T08:39:56;101098.28;;;11.63
37452;BMP280;23314;51.114;6.900;2022-11-06T08:42:21;101100.84;;;11.74
37452;BMP280;23314;51.114;6.900;2022-11-06T08:44:47;101100.97;;;11.90
37452;BMP280;23314;51.114;6.900;2022-11-06T08:47:15;101094.66;;;12.08
37452;BMP280;23314;51.114;6.900;2022-11-06T08:49:44;101086.38;;;12.26
37452;BMP280;23314;51.114;6.900;2022-11-06T08:52:10;101083.16;;;12.38
37452;BMP280;23314;51.114;6.900;2022-11-06T08:54:35;101076.09;;;12.48
37452;BMP280;23314;51.114;6.900;2022-11-06T08:57:00;101068.31;;;12.58
37452;BMP280;23314;51.114;6.900;2022-11-06T08:59:26;101075.72;;;12.74
37452;BMP280;23314;51.114;6.900;2022-11-06T09:01:53;101073.06;;;12.94
37452;BMP280;23314;51.114;6.900;2022-11-06T09:04:18;101076.84;;;13.16
37452;BMP280;23314;51.114;6.900;2022-11-06T09:06:44;101078.84;;;13.32
37452;BMP280;23314;51.114;6.900;2022-11-06T09:09:09;101077.47;;;13.44
37452;BMP280;23314;51.114;6.900;2022-11-06T09:11:34;101069.28;;;13.51
37452;BMP280;23314;51.114;6.900;2022-11-06T09:14:00;101061.84;;;13.59
37452;BMP280;23314;51.114;6.900;2022-11-06T09:16:25;101056.59;;;13.72
37452;BMP280;23314;51.114;6.900;2022-11-06T09:18:54;101056.63;;;13.89
37452;BMP280;23314;51.114;6.900;2022-11-06T09:21:21;101052.16;;;13.98
37452;BMP280;23314;51.114;6.900;2022-11-06T09:23:46;101037.09;;;14.04
37452;BMP280;23314;51.114;6.900;2022-11-06T09:26:13;101040.78;;;14.11
37452;BMP280;23314;51.114;6.900;2022-11-06T09:28:39;101034.50;;;14.17
37452;BMP280;23314;51.114;6.900;2022-11-06T09:31:05;101034.91;;;14.32
37452;BMP280;23314;51.114;6.900;2022-11-06T09:33:31;101026.94;;;14.45
37452;BMP280;23314;51.114;6.900;2022-11-06T09:35:56;101013.38;;;14.49
37452;BMP280;23314;51.114;6.900;2022-11-06T09:38:22;101014.06;;;14.53
37452;BMP280;23314;51.114;6.900;2022-11-06T09:40:51;101012.13;;;14.53
37452;BMP280;23314;51.114;6.900;2022-11-06T09:43:45;101007.72;;;14.47
37452;BMP280;23314;51.114;6.900;2022-11-06T09:48:44;101011.59;;;14.29
37452;BMP280;23314;51.114;6.900;2022-11-06T09:51:18;101001.47;;;14.20
37452;BMP280;23314;51.114;6.900;2022-11-06T09:56:29;101000.38;;;14.18
37452;BMP280;23314;51.114;6.900;2022-11-06T09:58:55;101001.03;;;14.22
37452;BMP280;23314;51.114;6.900;2022-11-06T10:01:26;100998.16;;;14.29
37452;BMP280;23314;51.114;6.900;2022-11-06T10:04:01;100981.06;;;14.40
37452;BMP280;23314;51.114;6.900;2022-11-06T10:06:28;100995.59;;;14.55
37452;BMP280;23314;51.114;6.900;2022-11-06T10:09:05;100994.47;;;14.69
37452;BMP280;23314;51.114;6.900;2022-11-06T10:16:58;100979.50;;;15.10
37452;BMP280;23314;51.114;6.900;2022-11-06T10:27:42;100962.53;;;15.26
37452;BMP280;23314;51.114;6.900;2022-11-06T10:30:13;100968.97;;;15.42
37452;BMP280;23314;51.114;6.900;2022-11-06T10:32:51;100963.16;;;15.56
37452;BMP280;23314;51.114;6.900;2022-11-06T10:35:31;100963.78;;;15.60
37452;BMP280;23314;51.114;6.900;2022-11-06T10:40:36;100954.25;;;15.59
37452;BMP280;23314;51.114;6.900;2022-11-06T10:45:34;100947.03;;;15.56
37452;BMP280;23314;51.114;6.900;2022-11-06T10:48:14;100939.69;;;15.57
37452;BMP280;23314;51.114;6.900;2022-11-06T10:59:17;100915.13;;;15.32
37452;BMP280;23314;51.114;6.900;2022-11-06T11:01:43;100919.31;;;15.33
37452;BMP280;23314;51.114;6.900;2022-11-06T11:04:08;100912.31;;;15.36
37452;BMP280;23314;51.114;6.900;2022-11-06T11:06:34;100912.31;;;15.36
37452;BMP280;23314;51.114;6.900;2022-11-06T11:09:26;100910.59;;;15.42
37452;BMP280;23314;51.114;6.900;2022-11-06T11:11:52;100901.22;;;15.47
37452;BMP280;23314;51.114;6.900;2022-11-06T11:14:24;100893.16;;;15.47
37452;BMP280;23314;51.114;6.900;2022-11-06T11:16:51;100889.41;;;15.44
37452;BMP280;23314;51.114;6.900;2022-11-06T11:19:33;100883.72;;;15.42
37452;BMP280;23314;51.114;6.900;2022-11-06T11:22:20;100881.44;;;15.41
37452;BMP280;23314;51.114;6.900;2022-11-06T11:25:06;100881.44;;;15.41
37452;BMP280;23314;51.114;6.900;2022-11-06T11:27:41;100873.47;;;15.37
37452;BMP280;23314;51.114;6.900;2022-11-06T11:30:19;100870.09;;;15.36
37452;BMP280;23314;51.114;6.900;2022-11-06T11:32:44;100863.38;;;15.41
37452;BMP280;23314;51.114;6.900;2022-11-06T11:35:10;100860.72;;;15.41
37452;BMP280;23314;51.114;6.900;2022-11-06T11:37:36;100852.94;;;15.43
37452;BMP280;23314;51.114;6.900;2022-11-06T11:40:37;100850.91;;;15.47
37452;BMP280;23314;51.114;6.900;2022-11-06T11:43:27;100849.91;;;15.54
37452;BMP280;23314;51.114;6.900;2022-11-06T11:48:51;100830.41;;;15.63
37452;BMP280;23314;51.114;6.900;2022-11-06T11:51:36;100818.03;;;15.65
37452;BMP280;23314;51.114;6.900;2022-11-06T11:54:06;100809.84;;;15.69
37452;BMP280;23314;51.114;6.900;2022-11-06T11:56:46;100792.22;;;15.68
37452;BMP280;23314;51.114;6.900;2022-11-06T11:59:19;100794.38;;;15.60
37452;BMP280;23314;51.114;6.900;2022-11-06T12:01:46;100795.44;;;15.63
37452;BMP280;23314;51.114;6.900;2022-11-06T12:04:28;100786.06;;;15.67
37452;BMP280;23314;51.114;6.900;2022-11-06T12:07:02;100779.81;;;15.70
37452;BMP280;23314;51.114;6.900;2022-11-06T12:09:31;100778.75;;;15.68
37452;BMP280;23314;51.114;6.900;2022-11-06T12:11:58;100759.72;;;15.62
37452;BMP280;23314;51.114;6.900;2022-11-06T12:14:27;100764.13;;;15.47
37452;BMP280;23314;51.114;6.900;2022-11-06T12:16:57;100757.06;;;15.40
37452;BMP280;23314;51.114;6.900;2022-11-06T12:19:26;100741.91;;;15.33
37452;BMP280;23314;51.114;6.900;2022-11-06T12:21:57;100735.25;;;15.25
37452;BMP280;23314;51.114;6.900;2022-11-06T12:24:32;100714.78;;;15.18
37452;BMP280;23314;51.114;6.900;2022-11-06T12:27:05;100719.50;;;15.14
37452;BMP280;23314;51.114;6.900;2022-11-06T12:29:40;100727.75;;;15.20
37452;BMP280;23314;51.114;6.900;2022-11-06T12:32:21;100730.34;;;15.24
37452;BMP280;23314;51.114;6.900;2022-11-06T12:35:28;100724.50;;;15.25
37452;BMP280;23314;51.114;6.900;2022-11-06T12:38:20;100715.09;;;15.20
37452;BMP280;23314;51.114;6.900;2022-11-06T12:41:15;100710.38;;;15.25
37452;BMP280;23314;51.114;6.900;2022-11-06T12:43:49;100706.34;;;15.29
37452;BMP280;23314;51.114;6.900;2022-11-06T12:49:45;100698.19;;;15.20
37452;BMP280;23314;51.114;6.900;2022-11-06T12:57:44;100698.31;;;15.39
37452;BMP280;23314;51.114;6.900;2022-11-06T13:00:26;100693.34;;;15.50
37452;BMP280;23314;51.114;6.900;2022-11-06T13:05:53;100692.00;;;15.77
37452;BMP280;23314;51.114;6.900;2022-11-06T13:14:18;100685.13;;;15.76
37452;BMP280;23314;51.114;6.900;2022-11-06T13:27:23;100667.72;;;15.36
37452;BMP280;23314;51.114;6.900;2022-11-06T13:29:50;100657.41;;;15.34
37452;BMP280;23314;51.114;6.900;2022-11-06T13:32:20;100656.66;;;15.34
37452;BMP280;23314;51.114;6.900;2022-11-06T13:34:49;100665.47;;;15.34
37452;BMP280;23314;51.114;6.900;2022-11-06T13:37:19;100671.59;;;15.35
37452;BMP280;23314;51.114;6.900;2022-11-06T13:39:58;100682.03;;;15.33
37452;BMP280;23314;51.114;6.900;2022-11-06T13:42:34;100671.59;;;15.35
37452;BMP280;23314;51.114;6.900;2022-11-06T13:45:00;100680.59;;;15.41
37452;BMP280;23314;51.114;6.900;2022-11-06T13:47:29;100669.69;;;15.45
37452;BMP280;23314;51.114;6.900;2022-11-06T13:50:12;100674.34;;;15.44
37452;BMP280;23314;51.114;6.900;2022-11-06T13:52:45;100665.84;;;15.46
37452;BMP280;23314;51.114;6.900;2022-11-06T14:03:50;100646.66;;;15.12
37452;BMP280;23314;51.114;6.900;2022-11-06T14:06:21;100640.56;;;15.12
37452;BMP280;23314;51.114;6.900;2022-11-06T14:08:51;100634.22;;;15.06
37452;BMP280;23314;51.114;6.900;2022-11-06T14:11:24;100635.09;;;15.02
37452;BMP280;23314;51.114;6.900;2022-11-06T14:14:29;100645.66;;;14.97
37452;BMP280;23314;51.114;6.900;2022-11-06T14:20:00;100636.44;;;14.85
37452;BMP280;23314;51.114;6.900;2022-11-06T14:22:33;100633.16;;;14.81
37452;BMP280;23314;51.114;6.900;2022-11-06T14:32:55;100636.50;;;14.72
37452;BMP280;23314;51.114;6.900;2022-11-06T14:35:48;100625.84;;;14.68
37452;BMP280;23314;51.114;6.900;2022-11-06T14:38:30;100642.88;;;14.65
37452;BMP280;23314;51.114;6.900;2022-11-06T14:40:57;100641.03;;;14.62
37452;BMP280;23314;51.114;6.900;2022-11-06T14:43:29;100640.72;;;14.60
37452;BMP280;23314;51.114;6.900;2022-11-06T14:46:00;100643.81;;;14.59
37452;BMP280;23314;51.114;6.900;2022-11-06T14:48:36;100638.56;;;14.55
37452;BMP280;23314;51.114;6.900;2022-11-06T14:51:04;100635.25;;;14.51
37452;BMP280;23314;51.114;6.900;2022-11-06T14:53:36;100622.69;;;14.48
37452;BMP280;23314;51.114;6.900;2022-11-06T14:56:07;100626.25;;;14.45
37452;BMP280;23314;51.114;6.900;2022-11-06T15:03:41;100624.44;;;14.29
37452;BMP280;23314;51.114;6.900;2022-11-06T15:16:27;100630.16;;;14.05
37452;BMP280;23314;51.114;6.900;2022-11-06T15:19:00;100641.41;;;14.00
37452;BMP280;23314;51.114;6.900;2022-11-06T15:21:29;100638.50;;;13.94
37452;BMP280;23314;51.114;6.900;2022-11-06T15:24:06;100644.44;;;13.89
37452;BMP280;23314;51.114;6.900;2022-11-06T15:26:37;100653.31;;;13.86
37452;BMP280;23314;51.114;6.900;2022-11-06T15:29:16;100646.97;;;13.80
37452;BMP280;23314;51.114;6.900;2022-11-06T15:31:53;100659.38;;;13.74
37452;BMP280;23314;51.114;6.900;2022-11-06T15:34:35;100652.72;;;13.65
37452;BMP280;23314;51.114;6.900;2022-11-06T15:37:23;100642.94;;;13.59
37452;BMP280;23314;51.114;6.900;2022-11-06T15:39:52;100650.75;;;13.53
37452;BMP280;23314;51.114;6.900;2022-11-06T15:42:20;100657.81;;;13.47
37452;BMP280;23314;51.114;6.900;2022-11-06T15:44:47;100676.78;;;13.40
37452;BMP280;23314;51.114;6.900;2022-11-06T15:47:24;100668.19;;;13.32
37452;BMP280;23314;51.114;6.900;2022-11-06T15:52:36;100668.56;;;13.17
37452;BMP280;23314;51.114;6.900;2022-11-06T15:55:03;100666.03;;;13.10
37452;BMP280;23314;51.114;6.900;2022-11-06T15:57:28;100671.25;;;13.01
37452;BMP280;23314;51.114;6.900;2022-11-06T16:00:09;100666.06;;;12.94
37452;BMP280;23314;51.114;6.900;2022-11-06T16:02:49;100647.19;;;12.84
37452;BMP280;23314;51.114;6.900;2022-11-06T16:05:16;100640.41;;;12.80
37452;BMP280;23314;51.114;6.900;2022-11-06T16:07:45;100607.31;;;12.74
37452;BMP280;23314;51.114;6.900;2022-11-06T16:10:13;100612.59;;;12.61
37452;BMP280;23314;51.114;6.900;2022-11-06T16:12:39;100582.72;;;12.46
37452;BMP280;23314;51.114;6.900;2022-11-06T16:15:25;100589.06;;;12.35
37452;BMP280;23314;51.114;6.900;2022-11-06T16:17:51;100544.28;;;12.23
37452;BMP280;23314;51.114;6.900;2022-11-06T16:20:17;100521.69;;;12.07
37452;BMP280;23314;51.114;6.900;2022-11-06T16:22:42;100522.69;;;11.97
37452;BMP280;23314;51.114;6.900;2022-11-06T16:25:16;100521.38;;;11.89
37452;BMP280;23314;51.114;6.900;2022-11-06T16:27:42;100513.81;;;11.84
37452;BMP280;23314;51.114;6.900;2022-11-06T16:30:20;100508.97;;;11.79
37452;BMP280;23314;51.114;6.900;2022-11-06T16:32:45;100507.56;;;11.74
37452;BMP280;23314;51.114;6.900;2022-11-06T16:35:31;100490.44;;;11.71
37452;BMP280;23314;51.114;6.900;2022-11-06T16:41:01;100488.25;;;11.66
37452;BMP280;23314;51.114;6.900;2022-11-06T16:43:26;100486.00;;;11.65
37452;BMP280;23314;51.114;6.900;2022-11-06T16:48:26;100507.38;;;11.65
37452;BMP280;23314;51.114;6.900;2022-11-06T16:50:59;100516.47;;;11.67